Terminal Aerodrome Forecast
Issued by NWS

Home | Current Version | Previous Version | Text Only | Print | Product List | Glossary On
Versions: 1 2 3 4 5 6 7 8 9 10 11 12 13 14 15 16
000
FTUS45 KREV 281100
TAFMMH
TAF
KMMH 281127Z 2812/2912 29004KT P6SM SCT050 SCT150
     FM281800 11008KT P6SM SCT060 BKN150
     FM290200 VRB04KT P6SM BKN060 OVC140
      AMD NOT SKED 2812/2814=

USA.gov is the U.S. government's official web portal to all federal, state and local government web resources and services.